createdAt,value
2022-08-19T00:02:11.064Z,19.92
2022-08-19T00:04:43.936Z,20.37
2022-08-19T00:07:16.804Z,19.98
2022-08-19T00:09:50.014Z,16.32
2022-08-19T00:12:23.163Z,19.67
2022-08-19T00:14:56.689Z,18.87
2022-08-19T00:17:29.971Z,19.45
2022-08-19T00:20:02.883Z,17.07
2022-08-19T00:22:36.174Z,17.50
2022-08-19T00:25:10.302Z,17.07
2022-08-19T00:27:43.635Z,21.80
2022-08-19T00:30:16.772Z,17.15
2022-08-19T00:32:49.956Z,19.95
2022-08-19T00:35:23.206Z,19.20
2022-08-19T00:37:56.110Z,17.23
2022-08-19T00:40:29.315Z,18.32
2022-08-19T00:43:02.327Z,18.50
2022-08-19T00:45:36.898Z,21.52
2022-08-19T00:48:14.764Z,18.35
2022-08-19T00:50:51.903Z,17.65
2022-08-19T00:53:24.213Z,17.30
2022-08-19T00:56:00.654Z,18.65
2022-08-19T00:58:35.969Z,18.98
2022-08-19T01:01:09.168Z,19.82
2022-08-19T01:03:58.026Z,17.80
2022-08-19T01:06:20.062Z,17.52
2022-08-19T01:08:52.989Z,17.05
2022-08-19T01:11:27.635Z,20.45
2022-08-19T01:14:01.438Z,20.00
2022-08-19T01:19:11.591Z,16.85
2022-08-19T01:21:52.020Z,20.43
2022-08-19T01:24:24.983Z,22.82
2022-08-19T01:26:57.752Z,18.30
2022-08-19T01:29:30.706Z,16.48
2022-08-19T01:32:04.608Z,20.40
2022-08-19T01:34:37.748Z,17.23
2022-08-19T01:37:13.044Z,20.52
2022-08-19T01:39:46.911Z,17.52
2022-08-19T01:42:20.506Z,19.40
2022-08-19T01:44:55.085Z,18.50
2022-08-19T01:47:27.982Z,18.15
2022-08-19T01:50:02.096Z,18.02
2022-08-19T01:52:38.079Z,17.00
2022-08-19T01:55:15.547Z,19.70
2022-08-19T01:57:54.525Z,18.48
2022-08-19T02:00:30.816Z,18.37
2022-08-19T02:03:03.853Z,18.40
2022-08-19T02:05:37.072Z,15.67
2022-08-19T02:08:10.617Z,17.87
2022-08-19T02:10:46.153Z,16.37
2022-08-19T02:13:21.130Z,17.15
2022-08-19T02:15:55.113Z,19.55
2022-08-19T02:18:28.243Z,18.73
2022-08-19T02:21:02.780Z,18.05
2022-08-19T02:23:36.682Z,19.48
2022-08-19T02:26:09.569Z,24.05
2022-08-19T02:28:44.332Z,18.85
2022-08-19T02:31:21.479Z,18.05
2022-08-19T02:33:56.642Z,19.37
2022-08-19T02:36:30.267Z,21.10
2022-08-19T02:39:03.266Z,19.30
2022-08-19T02:41:36.466Z,18.17
2022-08-19T02:44:30.081Z,20.85
2022-08-19T02:46:46.054Z,19.67
2022-08-19T02:51:51.548Z,17.20
2022-08-19T02:54:24.844Z,19.05
2022-08-19T02:56:57.649Z,20.20
2022-08-19T02:59:34.733Z,19.07
2022-08-19T03:02:07.672Z,21.85
2022-08-19T03:04:41.374Z,17.15
2022-08-19T03:07:16.403Z,24.07
2022-08-19T03:09:49.263Z,18.25
2022-08-19T03:12:22.409Z,18.62
2022-08-19T03:14:55.652Z,19.32
2022-08-19T03:17:28.660Z,21.65
2022-08-19T03:20:01.585Z,18.80
2022-08-19T03:22:35.490Z,18.55
2022-08-19T03:25:08.781Z,20.60
2022-08-19T03:27:41.862Z,18.17
2022-08-19T03:30:15.736Z,20.43
2022-08-19T03:32:51.430Z,20.35
2022-08-19T03:35:24.795Z,22.67
2022-08-19T03:37:57.964Z,26.85
2022-08-19T03:40:31.950Z,22.62
2022-08-19T03:43:04.876Z,20.52
2022-08-19T03:45:38.333Z,20.48
2022-08-19T03:48:11.346Z,20.70
2022-08-19T03:50:44.993Z,24.15
2022-08-19T03:53:17.930Z,22.25
2022-08-19T03:55:50.744Z,19.32
2022-08-19T03:58:24.911Z,18.50
2022-08-19T04:03:31.065Z,20.57
2022-08-19T04:06:26.693Z,21.33
2022-08-19T04:09:01.874Z,22.98
2022-08-19T04:11:44.746Z,23.50
2022-08-19T04:14:21.894Z,19.95
2022-08-19T04:16:55.271Z,19.10
2022-08-19T04:19:28.849Z,21.12
2022-08-19T04:22:02.070Z,19.37
2022-08-19T04:24:36.726Z,20.88
2022-08-19T04:27:09.644Z,19.73
2022-08-19T04:29:42.795Z,22.17
2022-08-19T04:32:17.741Z,24.72
2022-08-19T04:35:02.731Z,21.25
2022-08-19T04:37:25.958Z,22.17
2022-08-19T04:40:18.170Z,24.82
2022-08-19T04:42:51.092Z,24.00
2022-08-19T04:45:24.302Z,22.65
2022-08-19T04:48:26.268Z,23.87
2022-08-19T04:50:34.245Z,24.52
2022-08-19T04:53:08.359Z,20.55
2022-08-19T04:55:43.764Z,22.02
2022-08-19T04:58:18.099Z,22.60
2022-08-19T05:00:51.056Z,22.42
2022-08-19T05:03:27.615Z,19.57
2022-08-19T05:05:59.773Z,19.15
2022-08-19T05:08:38.852Z,22.95
2022-08-19T05:11:19.545Z,24.87
2022-08-19T05:13:54.166Z,31.73
2022-08-19T05:16:29.185Z,22.10
2022-08-19T05:19:19.988Z,20.25
2022-08-19T05:22:10.704Z,20.77
2022-08-19T05:25:02.484Z,23.42
2022-08-19T05:27:18.658Z,23.00
2022-08-19T05:29:53.282Z,20.03
2022-08-19T05:32:26.243Z,25.60
2022-08-19T05:34:59.123Z,23.15
2022-08-19T05:37:31.937Z,18.77
2022-08-19T05:40:06.005Z,21.43
2022-08-19T05:42:39.392Z,20.15
2022-08-19T05:45:13.179Z,22.70
2022-08-19T05:50:19.181Z,18.85
2022-08-19T05:52:52.198Z,22.48
2022-08-19T05:55:25.239Z,21.23
2022-08-19T05:57:58.553Z,18.07
2022-08-19T06:00:32.566Z,20.90
2022-08-19T06:03:11.711Z,21.70
2022-08-19T06:05:46.254Z,20.35
2022-08-19T06:08:19.050Z,17.37
2022-08-19T06:10:51.968Z,22.25
2022-08-19T06:13:27.043Z,16.00
2022-08-19T06:16:01.566Z,19.98
2022-08-19T06:18:34.778Z,25.63
2022-08-19T06:21:07.765Z,25.02
2022-08-19T06:23:41.736Z,21.23
2022-08-19T06:26:19.706Z,23.00
2022-08-19T06:28:52.990Z,21.27
2022-08-19T06:31:29.470Z,24.03
2022-08-19T06:34:06.525Z,23.77
2022-08-19T06:36:44.018Z,23.22
2022-08-19T06:39:21.141Z,24.95
2022-08-19T06:41:59.004Z,24.50
2022-08-19T06:44:43.015Z,30.60
2022-08-19T06:47:23.059Z,24.45
2022-08-19T06:49:49.820Z,21.55
2022-08-19T06:52:24.151Z,22.13
2022-08-19T06:54:59.769Z,23.70
2022-08-19T06:57:34.138Z,20.95
2022-08-19T07:00:13.041Z,20.25
2022-08-19T07:02:50.739Z,20.10
2022-08-19T07:05:20.948Z,20.30
2022-08-19T07:07:54.591Z,23.38
2022-08-19T07:10:29.188Z,18.80
2022-08-19T07:13:02.351Z,20.12
2022-08-19T07:15:35.333Z,20.52
2022-08-19T07:18:11.612Z,21.10
2022-08-19T07:20:44.409Z,24.52
2022-08-19T07:23:18.135Z,20.00
2022-08-19T07:25:52.978Z,22.35
2022-08-19T07:28:25.951Z,20.25
2022-08-19T07:31:02.109Z,21.42
2022-08-19T07:33:37.360Z,21.30
2022-08-19T07:36:15.613Z,26.02
2022-08-19T07:38:52.092Z,23.52
2022-08-19T07:41:27.607Z,23.95
2022-08-19T07:44:05.035Z,23.40
2022-08-19T07:46:41.010Z,22.52
2022-08-19T07:49:16.612Z,24.55
2022-08-19T07:52:03.538Z,26.50
2022-08-19T07:54:39.312Z,29.37
2022-08-19T07:57:12.365Z,26.70
2022-08-19T07:59:45.290Z,28.38
2022-08-19T08:02:18.584Z,28.50
2022-08-19T08:05:09.175Z,30.45
2022-08-19T08:08:01.392Z,30.57
2022-08-19T08:10:34.534Z,28.10
2022-08-19T08:13:09.354Z,25.23
2022-08-19T08:15:43.761Z,25.25
2022-08-19T08:18:16.902Z,26.70
2022-08-19T08:20:50.598Z,24.70
2022-08-19T08:23:30.864Z,24.80
2022-08-19T08:26:06.012Z,26.25
2022-08-19T08:28:40.195Z,26.12
2022-08-19T08:31:14.007Z,31.60
2022-08-19T08:33:47.260Z,28.55
2022-08-19T08:36:20.193Z,26.52
2022-08-19T08:41:34.453Z,25.00
2022-08-19T08:44:08.614Z,28.27
2022-08-19T08:46:59.855Z,31.42
2022-08-19T08:49:40.049Z,26.80
2022-08-19T08:52:31.978Z,28.35
2022-08-19T08:55:10.126Z,30.68
2022-08-19T08:57:57.372Z,30.02
2022-08-19T09:00:34.898Z,24.95
2022-08-19T09:03:24.372Z,26.87
2022-08-19T09:06:11.898Z,26.48
2022-08-19T09:09:12.113Z,23.55
2022-08-19T09:12:31.803Z,26.73
2022-08-19T09:15:11.155Z,24.18
2022-08-19T09:17:44.297Z,30.45
2022-08-19T09:20:26.201Z,24.92
2022-08-19T09:22:59.751Z,25.12
2022-08-19T09:25:34.354Z,32.35
2022-08-19T09:28:20.331Z,32.03
2022-08-19T09:30:45.328Z,25.17
2022-08-19T09:33:18.675Z,20.35
2022-08-19T09:35:53.617Z,21.40
2022-08-19T09:38:26.274Z,22.55
2022-08-19T09:40:59.364Z,24.18
2022-08-19T09:43:33.879Z,25.43
2022-08-19T09:46:10.300Z,27.90
2022-08-19T09:48:43.776Z,22.27
2022-08-19T09:51:21.388Z,23.73
2022-08-19T09:53:55.273Z,19.77
2022-08-19T09:56:28.485Z,22.25
2022-08-19T09:59:03.543Z,19.98
2022-08-19T10:01:36.643Z,19.48
2022-08-19T10:04:14.684Z,22.62
2022-08-19T10:06:48.780Z,21.12
2022-08-19T10:09:33.989Z,27.77
2022-08-19T10:11:58.594Z,22.17
2022-08-19T10:14:32.434Z,27.10
2022-08-19T10:17:19.210Z,26.30
2022-08-19T10:19:41.726Z,28.25
2022-08-19T10:22:17.359Z,20.65
2022-08-19T10:24:50.801Z,24.65
2022-08-19T10:27:24.031Z,24.00
2022-08-19T10:29:58.785Z,23.22
2022-08-19T10:32:34.467Z,24.63
2022-08-19T10:35:09.557Z,22.05
2022-08-19T10:37:56.852Z,28.32
2022-08-19T10:40:17.272Z,23.92
2022-08-19T10:42:50.872Z,23.47
2022-08-19T10:45:26.857Z,21.02
2022-08-19T10:48:01.323Z,22.80
2022-08-19T10:50:53.549Z,23.32
2022-08-19T10:53:26.858Z,22.00
2022-08-19T10:56:17.706Z,26.25
2022-08-19T10:58:50.940Z,27.48
2022-08-19T11:01:23.959Z,24.77
2022-08-19T11:03:58.561Z,23.52
2022-08-19T11:06:33.340Z,24.02
2022-08-19T11:09:07.178Z,23.15
2022-08-19T11:11:42.094Z,19.65
2022-08-19T11:14:19.846Z,21.25
2022-08-19T11:16:55.946Z,13.62
2022-08-19T11:19:28.876Z,11.63
2022-08-19T11:22:04.081Z,17.30
2022-08-19T11:24:37.912Z,12.95
2022-08-19T11:29:45.513Z,14.70
2022-08-19T11:32:18.783Z,17.98
2022-08-19T11:34:51.666Z,17.25
2022-08-19T11:37:25.022Z,17.55
2022-08-19T11:39:58.415Z,21.00
2022-08-19T11:42:49.191Z,17.40
2022-08-19T11:45:22.190Z,23.27
2022-08-19T11:47:55.752Z,19.75
2022-08-19T11:50:28.810Z,31.17
2022-08-19T11:53:01.986Z,24.55
2022-08-19T11:55:34.855Z,23.00
2022-08-19T11:58:18.755Z,29.77
2022-08-19T12:00:46.462Z,25.90
2022-08-19T12:03:20.911Z,24.50
2022-08-19T12:08:26.022Z,26.00
2022-08-19T12:11:01.505Z,24.20
2022-08-19T12:13:34.865Z,24.32
2022-08-19T12:16:17.970Z,22.15
2022-08-19T12:18:52.265Z,20.17
2022-08-19T12:21:30.317Z,17.98
2022-08-19T12:24:06.707Z,17.52
2022-08-19T12:26:53.229Z,18.50
2022-08-19T12:29:18.444Z,20.08
2022-08-19T12:31:51.538Z,20.85
2022-08-19T12:34:26.026Z,30.50
2022-08-19T12:37:01.107Z,31.37
2022-08-19T12:39:39.840Z,28.35
2022-08-19T12:42:15.411Z,23.62
2022-08-19T12:44:48.783Z,25.65
2022-08-19T12:47:22.417Z,23.90
2022-08-19T12:49:56.227Z,26.45
2022-08-19T12:52:29.790Z,22.77
2022-08-19T12:55:02.848Z,21.37
2022-08-19T12:57:36.872Z,20.80
2022-08-19T13:00:17.964Z,21.40
2022-08-19T13:02:53.665Z,21.73
2022-08-19T13:05:30.458Z,21.40
2022-08-19T13:08:04.129Z,27.35
2022-08-19T13:10:38.342Z,18.77
2022-08-19T13:13:12.580Z,19.30
2022-08-19T13:15:46.602Z,22.02
2022-08-19T13:18:19.745Z,29.02
2022-08-19T13:20:53.212Z,25.65
2022-08-19T13:23:26.494Z,18.07
2022-08-19T13:26:06.500Z,17.23
2022-08-19T13:28:59.623Z,19.02
2022-08-19T13:31:54.148Z,18.45
2022-08-19T13:34:35.116Z,19.82
2022-08-19T13:37:08.842Z,19.98
2022-08-19T13:42:15.277Z,18.48
2022-08-19T13:44:48.987Z,21.55
2022-08-19T13:47:22.257Z,25.80
2022-08-19T13:49:55.245Z,25.85
2022-08-19T13:52:28.285Z,22.30
2022-08-19T13:55:01.347Z,14.53
2022-08-19T13:57:34.588Z,15.83
2022-08-19T14:00:14.189Z,19.07
2022-08-19T14:02:49.178Z,20.60
2022-08-19T14:05:23.115Z,15.18
2022-08-19T14:07:57.032Z,22.25
2022-08-19T14:10:32.792Z,18.30
2022-08-19T14:13:06.731Z,17.62
2022-08-19T14:15:41.394Z,19.48
2022-08-19T14:18:14.660Z,19.17
2022-08-19T14:20:48.211Z,15.43
2022-08-19T14:23:21.403Z,17.27
2022-08-19T14:25:55.846Z,13.80
2022-08-19T14:28:29.653Z,11.90
2022-08-19T14:31:02.625Z,18.48
2022-08-19T14:33:36.188Z,17.62
2022-08-19T14:36:09.345Z,17.30
2022-08-19T14:38:44.228Z,18.95
2022-08-19T14:41:24.196Z,14.60
2022-08-19T14:43:57.584Z,18.17
2022-08-19T14:46:31.967Z,25.15
2022-08-19T14:49:09.368Z,20.35
2022-08-19T14:51:40.972Z,23.40
2022-08-19T14:54:14.231Z,22.62
2022-08-19T14:56:47.249Z,20.13
2022-08-19T14:59:20.131Z,19.70
2022-08-19T15:01:53.748Z,14.93
2022-08-19T15:04:31.977Z,14.35
2022-08-19T15:07:04.304Z,16.67
2022-08-19T15:09:37.738Z,14.70
2022-08-19T15:12:11.559Z,15.13
2022-08-19T15:14:47.933Z,15.93
2022-08-19T15:17:25.747Z,13.75
2022-08-19T15:19:57.611Z,13.70
2022-08-19T15:22:30.839Z,29.07
2022-08-19T15:25:04.643Z,25.35
2022-08-19T15:27:37.853Z,19.73
2022-08-19T15:30:12.448Z,18.62
2022-08-19T15:32:48.934Z,21.02
2022-08-19T15:35:20.935Z,15.08
2022-08-19T15:40:29.267Z,15.25
2022-08-19T15:43:02.480Z,16.20
2022-08-19T15:45:35.931Z,19.80
2022-08-19T15:48:09.224Z,17.97
2022-08-19T15:50:43.491Z,16.37
2022-08-19T15:53:16.416Z,16.60
2022-08-19T15:55:50.977Z,21.95
2022-08-19T15:58:41.885Z,26.20
2022-08-19T16:01:35.439Z,20.20
2022-08-19T16:04:24.629Z,18.67
2022-08-19T16:07:00.452Z,17.80
2022-08-19T16:09:35.766Z,20.70
2022-08-19T16:12:10.749Z,22.40
2022-08-19T16:14:44.515Z,23.20
2022-08-19T16:17:17.875Z,24.45
2022-08-19T16:19:52.744Z,31.30
2022-08-19T16:22:32.617Z,32.58
2022-08-19T16:25:07.628Z,32.23
2022-08-19T16:27:41.516Z,31.55
2022-08-19T16:30:15.936Z,32.15
2022-08-19T16:32:49.051Z,35.88
2022-08-19T16:35:22.521Z,33.20
2022-08-19T16:37:55.741Z,30.05
2022-08-19T16:40:28.877Z,25.52
2022-08-19T16:43:03.198Z,22.22
2022-08-19T16:45:36.100Z,22.45
2022-08-19T16:48:09.101Z,33.57
2022-08-19T16:50:49.508Z,44.67
2022-08-19T16:53:23.067Z,47.33
2022-08-19T16:55:57.699Z,78.02
2022-08-19T16:58:33.725Z,112.75
2022-08-19T17:01:10.297Z,115.97
2022-08-19T17:03:43.777Z,117.75
2022-08-19T17:06:21.643Z,109.80
2022-08-19T17:09:00.825Z,97.00
2022-08-19T17:11:34.502Z,91.87
2022-08-19T17:14:08.770Z,70.72
2022-08-19T17:16:43.731Z,57.30
2022-08-19T17:19:17.537Z,45.63
2022-08-19T17:21:50.649Z,41.75
2022-08-19T17:24:23.761Z,35.50
2022-08-19T17:26:56.625Z,28.38
2022-08-19T17:29:29.723Z,33.65
2022-08-19T17:32:02.936Z,28.97
2022-08-19T17:34:35.891Z,26.80
2022-08-19T17:37:09.092Z,23.27
2022-08-19T17:39:42.621Z,22.58
2022-08-19T17:42:15.696Z,25.57
2022-08-19T17:44:50.879Z,25.35
2022-08-19T17:47:23.302Z,23.38
2022-08-19T17:49:57.252Z,25.27
2022-08-19T17:52:30.285Z,27.22
2022-08-19T17:55:03.505Z,31.93
2022-08-19T17:57:36.632Z,26.23
2022-08-19T18:00:15.465Z,28.03
2022-08-19T18:03:00.532Z,27.25
2022-08-19T18:05:38.184Z,24.32
2022-08-19T18:08:12.932Z,25.45
2022-08-19T18:13:18.864Z,22.07
2022-08-19T18:15:52.337Z,24.27
2022-08-19T18:18:25.710Z,29.15
2022-08-19T18:20:59.319Z,31.35
2022-08-19T18:23:44.952Z,31.00
2022-08-19T18:26:09.172Z,37.93
2022-08-19T18:28:49.447Z,36.17
2022-08-19T18:31:19.499Z,37.53
2022-08-19T18:33:54.897Z,34.92
2022-08-19T18:36:52.540Z,28.07
2022-08-19T18:39:23.751Z,30.02
2022-08-19T18:42:15.577Z,23.07
2022-08-19T18:45:06.264Z,28.35
2022-08-19T18:47:57.134Z,27.67
2022-08-19T18:50:29.939Z,27.27
2022-08-19T18:53:02.855Z,24.12
2022-08-19T18:55:35.811Z,27.90
2022-08-19T18:58:09.211Z,31.50
2022-08-19T19:00:42.182Z,23.27
2022-08-19T19:03:15.109Z,19.37
2022-08-19T19:05:49.247Z,18.77
2022-08-19T19:08:27.178Z,15.95
2022-08-19T19:10:59.850Z,14.05
2022-08-19T19:13:35.562Z,14.50
2022-08-19T19:16:11.363Z,14.28
2022-08-19T19:18:44.985Z,16.67
2022-08-19T19:23:50.646Z,15.40
2022-08-19T19:26:23.701Z,17.10
2022-08-19T19:28:57.883Z,16.25
2022-08-19T19:34:04.958Z,15.63
2022-08-19T19:36:39.739Z,15.78
2022-08-19T19:39:12.574Z,14.70
2022-08-19T19:41:47.629Z,15.93
2022-08-19T19:44:29.927Z,16.95
2022-08-19T19:46:55.961Z,15.00
2022-08-19T19:49:30.768Z,16.40
2022-08-19T19:52:03.708Z,16.73
2022-08-19T19:54:38.070Z,23.70
2022-08-19T19:57:11.925Z,13.72
2022-08-19T19:59:51.184Z,17.92
2022-08-19T20:02:19.986Z,13.18
2022-08-19T20:04:52.984Z,12.37
2022-08-19T20:07:27.866Z,12.93
2022-08-19T20:10:01.373Z,16.60
2022-08-19T20:12:34.885Z,13.77
2022-08-19T20:15:09.258Z,13.00
2022-08-19T20:17:43.339Z,10.90
2022-08-19T20:20:19.527Z,12.95
2022-08-19T20:22:52.454Z,11.45
2022-08-19T20:25:25.839Z,11.03
2022-08-19T20:28:00.252Z,10.55
2022-08-19T20:30:34.503Z,11.30
2022-08-19T20:33:07.589Z,10.70
2022-08-19T20:35:40.721Z,10.55
2022-08-19T20:38:13.969Z,10.47
2022-08-19T20:40:47.153Z,12.03
2022-08-19T20:43:20.017Z,11.80
2022-08-19T20:45:53.161Z,12.05
2022-08-19T20:48:26.275Z,11.53
2022-08-19T20:50:59.811Z,14.80
2022-08-19T20:53:33.072Z,12.85
2022-08-19T20:56:07.161Z,15.32
2022-08-19T20:58:40.850Z,15.20
2022-08-19T21:01:14.149Z,10.30
